sensor_id;sensor_type;location;lat;lon;timestamp;pressure;altitude;pressure_sealevel;temperature;humidity
54882;BME280;40775;51.448;4.742;2023-04-28T00:02:18;101180.94;;;11.16;100.00
54882;BME280;40775;51.448;4.742;2023-04-28T00:04:45;101184.47;;;11.18;100.00
54882;BME280;40775;51.448;4.742;2023-04-28T00:07:13;101173.13;;;11.19;100.00
54882;BME280;40775;51.448;4.742;2023-04-28T00:09:40;101179.06;;;11.10;100.00
54882;BME280;40775;51.448;4.742;2023-04-28T00:12:07;101165.09;;;11.13;100.00
54882;BME280;40775;51.448;4.742;2023-04-28T00:14:34;101153.72;;;11.14;100.00
54882;BME280;40775;51.448;4.742;2023-04-28T00:17:01;101135.34;;;11.14;100.00
54882;BME280;40775;51.448;4.742;2023-04-28T00:19:29;101132.63;;;11.09;100.00
54882;BME280;40775;51.448;4.742;2023-04-28T00:21:56;101123.84;;;11.09;100.00
54882;BME280;40775;51.448;4.742;2023-04-28T00:24:23;101126.44;;;11.07;100.00
54882;BME280;40775;51.448;4.742;2023-04-28T00:26:50;101118.66;;;11.12;100.00
54882;BME280;40775;51.448;4.742;2023-04-28T00:29:18;101137.91;;;11.11;100.00
54882;BME280;40775;51.448;4.742;2023-04-28T00:31:45;101122.06;;;11.08;100.00
54882;BME280;40775;51.448;4.742;2023-04-28T00:34:12;101121.22;;;11.09;100.00
54882;BME280;40775;51.448;4.742;2023-04-28T00:36:41;101121.19;;;11.07;100.00
54882;BME280;40775;51.448;4.742;2023-04-28T00:39:08;101129.09;;;11.09;100.00
54882;BME280;40775;51.448;4.742;2023-04-28T00:41:35;101133.47;;;11.08;100.00
54882;BME280;40775;51.448;4.742;2023-04-28T00:44:03;101128.16;;;11.05;100.00
54882;BME280;40775;51.448;4.742;2023-04-28T00:46:30;101122.81;;;11.02;100.00
54882;BME280;40775;51.448;4.742;2023-04-28T00:48:59;101120.22;;;11.04;100.00
54882;BME280;40775;51.448;4.742;2023-04-28T00:51:26;101109.72;;;11.04;100.00
54882;BME280;40775;51.448;4.742;2023-04-28T00:53:55;101109.66;;;11.01;100.00
54882;BME280;40775;51.448;4.742;2023-04-28T00:56:23;101106.22;;;11.03;100.00
54882;BME280;40775;51.448;4.742;2023-04-28T00:58:50;101094.81;;;11.03;100.00
54882;BME280;40775;51.448;4.742;2023-04-28T01:01:17;101084.31;;;11.03;100.00
54882;BME280;40775;51.448;4.742;2023-04-28T01:03:45;101098.19;;;10.97;100.00
54882;BME280;40775;51.448;4.742;2023-04-28T01:06:13;101084.34;;;11.04;100.00
54882;BME280;40775;51.448;4.742;2023-04-28T01:08:40;101087.75;;;11.00;100.00
54882;BME280;40775;51.448;4.742;2023-04-28T01:11:08;101102.63;;;11.00;100.00
54882;BME280;40775;51.448;4.742;2023-04-28T01:13:40;101097.31;;;10.97;100.00
54882;BME280;40775;51.448;4.742;2023-04-28T01:16:07;101100.81;;;10.97;100.00
54882;BME280;40775;51.448;4.742;2023-04-28T01:18:34;101095.53;;;10.96;100.00
54882;BME280;40775;51.448;4.742;2023-04-28T01:21:01;101090.28;;;10.96;100.00
54882;BME280;40775;51.448;4.742;2023-04-28T01:23:30;101096.31;;;10.93;100.00
54882;BME280;40775;51.448;4.742;2023-04-28T01:25:57;101087.56;;;10.93;100.00
54882;BME280;40775;51.448;4.742;2023-04-28T01:28:24;101079.81;;;10.97;100.00
54882;BME280;40775;51.448;4.742;2023-04-28T01:30:51;101066.63;;;10.96;100.00
54882;BME280;40775;51.448;4.742;2023-04-28T01:33:18;101069.09;;;10.90;100.00
54882;BME280;40775;51.448;4.742;2023-04-28T01:35:45;101068.22;;;10.89;100.00
54882;BME280;40775;51.448;4.742;2023-04-28T01:38:12;101067.31;;;10.87;100.00
54882;BME280;40775;51.448;4.742;2023-04-28T01:40:39;101075.22;;;10.89;100.00
54882;BME280;40775;51.448;4.742;2023-04-28T01:43:06;101076.06;;;10.88;100.00
54882;BME280;40775;51.448;4.742;2023-04-28T01:45:34;101067.25;;;10.86;100.00
54882;BME280;40775;51.448;4.742;2023-04-28T01:48:01;101057.66;;;10.86;100.00
54882;BME280;40775;51.448;4.742;2023-04-28T01:50:28;101049.81;;;10.88;100.00
54882;BME280;40775;51.448;4.742;2023-04-28T01:52:55;101041.84;;;10.84;100.00
54882;BME280;40775;51.448;4.742;2023-04-28T01:55:22;101033.03;;;10.81;100.00
54882;BME280;40775;51.448;4.742;2023-04-28T01:57:49;101022.56;;;10.82;100.00
54882;BME280;40775;51.448;4.742;2023-04-28T02:00:16;101014.63;;;10.79;100.00
54882;BME280;40775;51.448;4.742;2023-04-28T02:02:43;101001.41;;;10.76;100.00
54882;BME280;40775;51.448;4.742;2023-04-28T02:05:10;101000.56;;;10.77;100.00
54882;BME280;40775;51.448;4.742;2023-04-28T02:07:37;101008.53;;;10.82;100.00
54882;BME280;40775;51.448;4.742;2023-04-28T02:10:05;100985.72;;;10.79;100.00
54882;BME280;40775;51.448;4.742;2023-04-28T02:12:33;100969.06;;;10.77;100.00
54882;BME280;40775;51.448;4.742;2023-04-28T02:15:00;100965.53;;;10.77;100.00
54882;BME280;40775;51.448;4.742;2023-04-28T02:17:29;100991.78;;;10.75;100.00
54882;BME280;40775;51.448;4.742;2023-04-28T02:19:57;100997.09;;;10.78;100.00
54882;BME280;40775;51.448;4.742;2023-04-28T02:22:24;100987.53;;;10.82;100.00
54882;BME280;40775;51.448;4.742;2023-04-28T02:24:51;100978.84;;;10.86;100.00
54882;BME280;40775;51.448;4.742;2023-04-28T02:27:18;100978.81;;;10.84;100.00
54882;BME280;40775;51.448;4.742;2023-04-28T02:29:45;100986.72;;;10.84;100.00
54882;BME280;40775;51.448;4.742;2023-04-28T02:32:12;100977.09;;;10.85;100.00
54882;BME280;40775;51.448;4.742;2023-04-28T02:34:39;100982.28;;;10.82;100.00
54882;BME280;40775;51.448;4.742;2023-04-28T02:37:06;100969.25;;;10.87;100.00
54882;BME280;40775;51.448;4.742;2023-04-28T02:39:33;100969.22;;;10.85;100.00
54882;BME280;40775;51.448;4.742;2023-04-28T02:42:00;100975.31;;;10.84;100.00
54882;BME280;40775;51.448;4.742;2023-04-28T02:44:28;100967.56;;;10.90;100.00
54882;BME280;40775;51.448;4.742;2023-04-28T02:46:55;100969.28;;;10.88;100.00
54882;BME280;40775;51.448;4.742;2023-04-28T02:49:22;100970.13;;;10.87;100.00
54882;BME280;40775;51.448;4.742;2023-04-28T02:51:49;100964.03;;;10.88;100.00
54882;BME280;40775;51.448;4.742;2023-04-28T02:54:16;100976.22;;;10.86;100.00
54882;BME280;40775;51.448;4.742;2023-04-28T02:56:56;100978.00;;;10.87;100.00
54882;BME280;40775;51.448;4.742;2023-04-28T02:59:24;100982.47;;;10.91;100.00
54882;BME280;40775;51.448;4.742;2023-04-28T03:01:51;100967.53;;;10.89;100.00
54882;BME280;40775;51.448;4.742;2023-04-28T03:04:18;100968.41;;;10.89;100.00
54882;BME280;40775;51.448;4.742;2023-04-28T03:06:46;100969.34;;;10.93;100.00
54882;BME280;40775;51.448;4.742;2023-04-28T03:09:14;100972.00;;;10.94;100.00
54882;BME280;40775;51.448;4.742;2023-04-28T03:11:42;100971.09;;;10.92;100.00
54882;BME280;40775;51.448;4.742;2023-04-28T03:14:09;100965.84;;;10.92;100.00
54882;BME280;40775;51.448;4.742;2023-04-28T03:16:36;100968.47;;;10.92;100.00
54882;BME280;40775;51.448;4.742;2023-04-28T03:19:03;100970.28;;;10.95;100.00
54882;BME280;40775;51.448;4.742;2023-04-28T03:21:30;100964.09;;;10.93;100.00
54882;BME280;40775;51.448;4.742;2023-04-28T03:23:58;100967.59;;;10.92;100.00
54882;BME280;40775;51.448;4.742;2023-04-28T03:26:25;100965.81;;;10.91;100.00
54882;BME280;40775;51.448;4.742;2023-04-28T03:28:52;100957.09;;;10.92;100.00
54882;BME280;40775;51.448;4.742;2023-04-28T03:31:19;100955.22;;;10.86;100.00
54882;BME280;40775;51.448;4.742;2023-04-28T03:33:47;100952.63;;;10.88;100.00
54882;BME280;40775;51.448;4.742;2023-04-28T03:36:14;100936.00;;;10.89;100.00
54882;BME280;40775;51.448;4.742;2023-04-28T03:38:41;100942.97;;;10.87;100.00
54882;BME280;40775;51.448;4.742;2023-04-28T03:41:08;100947.31;;;10.84;100.00
54882;BME280;40775;51.448;4.742;2023-04-28T03:43:35;100946.47;;;10.86;100.00
54882;BME280;40775;51.448;4.742;2023-04-28T03:46:06;100942.09;;;10.86;100.00
54882;BME280;40775;51.448;4.742;2023-04-28T03:48:33;100938.59;;;10.86;100.00
54882;BME280;40775;51.448;4.742;2023-04-28T03:51:00;100945.50;;;10.82;100.00
54882;BME280;40775;51.448;4.742;2023-04-28T03:53:27;100942.91;;;10.83;100.00
54882;BME280;40775;51.448;4.742;2023-04-28T03:55:54;100940.41;;;10.90;100.00
54882;BME280;40775;51.448;4.742;2023-04-28T03:58:21;100938.63;;;10.89;100.00
54882;BME280;40775;51.448;4.742;2023-04-28T04:00:48;100945.72;;;10.93;100.00
54882;BME280;40775;51.448;4.742;2023-04-28T04:03:15;100936.13;;;10.95;100.00
54882;BME280;40775;51.448;4.742;2023-04-28T04:05:43;100939.63;;;10.94;100.00
54882;BME280;40775;51.448;4.742;2023-04-28T04:08:11;100929.19;;;10.97;100.00
54882;BME280;40775;51.448;4.742;2023-04-28T04:10:38;100930.97;;;10.98;100.00
54882;BME280;40775;51.448;4.742;2023-04-28T04:13:08;100923.09;;;10.98;100.00
54882;BME280;40775;51.448;4.742;2023-04-28T04:15:38;100927.47;;;10.97;100.00
54882;BME280;40775;51.448;4.742;2023-04-28T04:18:05;100917.72;;;10.93;100.00
54882;BME280;40775;51.448;4.742;2023-04-28T04:20:35;100917.72;;;10.93;100.00
54882;BME280;40775;51.448;4.742;2023-04-28T04:23:03;100919.56;;;10.97;100.00
54882;BME280;40775;51.448;4.742;2023-04-28T04:25:30;100909.84;;;10.93;100.00
54882;BME280;40775;51.448;4.742;2023-04-28T04:27:58;100915.06;;;10.92;100.00
54882;BME280;40775;51.448;4.742;2023-04-28T04:30:25;100912.41;;;10.90;100.00
54882;BME280;40775;51.448;4.742;2023-04-28T04:32:52;100916.91;;;10.96;100.00
54882;BME280;40775;51.448;4.742;2023-04-28T04:35:20;100914.22;;;10.94;100.00
54882;BME280;40775;51.448;4.742;2023-04-28T04:37:47;100918.69;;;10.97;100.00
54882;BME280;40775;51.448;4.742;2023-04-28T04:40:14;100914.34;;;10.99;100.00
54882;BME280;40775;51.448;4.742;2023-04-28T04:42:41;100903.03;;;11.03;100.00
54882;BME280;40775;51.448;4.742;2023-04-28T04:45:08;100903.00;;;11.00;100.00
54882;BME280;40775;51.448;4.742;2023-04-28T04:47:35;100901.28;;;11.02;100.00
54882;BME280;40775;51.448;4.742;2023-04-28T04:50:04;100903.06;;;11.04;100.00
54882;BME280;40775;51.448;4.742;2023-04-28T04:52:31;100892.53;;;11.03;100.00
54882;BME280;40775;51.448;4.742;2023-04-28T04:54:59;100898.75;;;11.08;100.00
54882;BME280;40775;51.448;4.742;2023-04-28T04:57:26;100900.44;;;11.04;100.00
54882;BME280;40775;51.448;4.742;2023-04-28T04:59:53;100901.41;;;11.09;100.00
54882;BME280;40775;51.448;4.742;2023-04-28T05:02:20;100904.88;;;11.07;100.00
54882;BME280;40775;51.448;4.742;2023-04-28T05:04:47;100914.56;;;11.11;100.00
54882;BME280;40775;51.448;4.742;2023-04-28T05:07:14;100907.63;;;11.14;100.00
54882;BME280;40775;51.448;4.742;2023-04-28T05:09:41;100915.50;;;11.14;100.00
54882;BME280;40775;51.448;4.742;2023-04-28T05:12:08;100906.72;;;11.12;100.00
54882;BME280;40775;51.448;4.742;2023-04-28T05:14:36;100914.66;;;11.15;100.00
54882;BME280;40775;51.448;4.742;2023-04-28T05:17:03;100912.00;;;11.14;100.00
54882;BME280;40775;51.448;4.742;2023-04-28T05:19:30;100909.47;;;11.19;100.00
54882;BME280;40775;51.448;4.742;2023-04-28T05:21:57;100912.09;;;11.20;100.00
54882;BME280;40775;51.448;4.742;2023-04-28T05:24:26;100906.94;;;11.23;100.00
54882;BME280;40775;51.448;4.742;2023-04-28T05:26:57;100907.00;;;11.26;100.00
54882;BME280;40775;51.448;4.742;2023-04-28T05:29:25;100900.84;;;11.26;100.00
54882;BME280;40775;51.448;4.742;2023-04-28T05:31:52;100903.50;;;11.27;100.00
54882;BME280;40775;51.448;4.742;2023-04-28T05:34:19;100904.41;;;11.29;100.00
54882;BME280;40775;51.448;4.742;2023-04-28T05:36:46;100910.50;;;11.27;100.00
54882;BME280;40775;51.448;4.742;2023-04-28T05:39:13;100905.28;;;11.28;100.00
54882;BME280;40775;51.448;4.742;2023-04-28T05:41:40;100907.03;;;11.29;100.00
54882;BME280;40775;51.448;4.742;2023-04-28T05:44:07;100901.78;;;11.29;100.00
54882;BME280;40775;51.448;4.742;2023-04-28T05:46:35;100918.63;;;12.48;100.00
54882;BME280;40775;51.448;4.742;2023-04-28T05:49:03;100918.97;;;13.49;100.00
54882;BME280;40775;51.448;4.742;2023-04-28T05:51:30;100895.75;;;14.13;100.00
54882;BME280;40775;51.448;4.742;2023-04-28T05:53:57;100885.47;;;14.58;100.00
54882;BME280;40775;51.448;4.742;2023-04-28T05:56:24;100888.22;;;14.83;100.00
54882;BME280;40775;51.448;4.742;2023-04-28T05:58:51;100888.25;;;14.97;100.00
54882;BME280;40775;51.448;4.742;2023-04-28T06:01:18;100882.09;;;15.01;100.00
54882;BME280;40775;51.448;4.742;2023-04-28T06:03:45;100890.06;;;15.09;100.00
54882;BME280;40775;51.448;4.742;2023-04-28T06:06:13;100888.31;;;15.19;100.00
54882;BME280;40775;51.448;4.742;2023-04-28T06:08:40;100888.31;;;15.23;100.00
54882;BME280;40775;51.448;4.742;2023-04-28T06:11:07;100887.44;;;15.33;100.00
54882;BME280;40775;51.448;4.742;2023-04-28T06:13:34;100879.50;;;15.33;100.00
54882;BME280;40775;51.448;4.742;2023-04-28T06:16:02;100883.94;;;15.39;100.00
54882;BME280;40775;51.448;4.742;2023-04-28T06:18:30;100883.94;;;15.42;100.00
54882;BME280;40775;51.448;4.742;2023-04-28T06:20:59;100891.88;;;15.42;100.00
54882;BME280;40775;51.448;4.742;2023-04-28T06:23:27;100883.06;;;15.44;100.00
54882;BME280;40775;51.448;4.742;2023-04-28T06:25:54;100883.94;;;15.53;100.00
54882;BME280;40775;51.448;4.742;2023-04-28T06:28:21;100889.28;;;15.59;100.00
54882;BME280;40775;51.448;4.742;2023-04-28T06:30:48;100884.00;;;15.62;100.00
54882;BME280;40775;51.448;4.742;2023-04-28T06:33:15;100891.06;;;15.61;100.00
54882;BME280;40775;51.448;4.742;2023-04-28T06:35:42;100888.41;;;15.64;100.00
54882;BME280;40775;51.448;4.742;2023-04-28T06:38:09;100887.53;;;15.68;100.00
54882;BME280;40775;51.448;4.742;2023-04-28T06:40:36;100884.00;;;15.71;100.00
54882;BME280;40775;51.448;4.742;2023-04-28T06:43:04;100882.25;;;15.71;100.00
54882;BME280;40775;51.448;4.742;2023-04-28T06:45:31;100880.47;;;15.78;100.00
54882;BME280;40775;51.448;4.742;2023-04-28T06:47:58;100888.41;;;15.80;100.00
54882;BME280;40775;51.448;4.742;2023-04-28T06:50:25;100884.88;;;15.81;100.00
54882;BME280;40775;51.448;4.742;2023-04-28T06:52:53;100880.44;;;15.84;100.00
54882;BME280;40775;51.448;4.742;2023-04-28T06:55:20;100879.56;;;15.84;100.00
54882;BME280;40775;51.448;4.742;2023-04-28T06:57:47;100877.81;;;15.89;100.00
54882;BME280;40775;51.448;4.742;2023-04-28T07:00:15;100888.41;;;15.90;100.00
54882;BME280;40775;51.448;4.742;2023-04-28T07:02:42;100889.28;;;15.94;100.00
54882;BME280;40775;51.448;4.742;2023-04-28T07:05:10;100880.47;;;15.95;100.00
54882;BME280;40775;51.448;4.742;2023-04-28T07:07:37;100884.88;;;15.97;100.00
54882;BME280;40775;51.448;4.742;2023-04-28T07:10:05;100877.81;;;15.98;100.00
54882;BME280;40775;51.448;4.742;2023-04-28T07:12:33;100876.91;;;15.99;100.00
54882;BME280;40775;51.448;4.742;2023-04-28T07:15:00;100881.34;;;16.00;100.00
54882;BME280;40775;51.448;4.742;2023-04-28T07:17:29;100878.69;;;16.01;100.00
54882;BME280;40775;51.448;4.742;2023-04-28T07:19:56;100889.28;;;16.00;100.00
54882;BME280;40775;51.448;4.742;2023-04-28T07:22:23;100883.09;;;16.02;100.00
54882;BME280;40775;51.448;4.742;2023-04-28T07:24:51;100874.25;;;16.05;100.00
54882;BME280;40775;51.448;4.742;2023-04-28T07:27:18;100880.44;;;16.07;100.00
54882;BME280;40775;51.448;4.742;2023-04-28T07:29:45;100885.72;;;16.07;100.00
54882;BME280;40775;51.448;4.742;2023-04-28T07:32:12;100882.19;;;16.08;100.00
54882;BME280;40775;51.448;4.742;2023-04-28T07:34:39;100878.66;;;16.11;100.00
54882;BME280;40775;51.448;4.742;2023-04-28T07:37:06;100878.66;;;16.11;100.00
54882;BME280;40775;51.448;4.742;2023-04-28T07:39:34;100882.78;;;14.51;100.00
54882;BME280;40775;51.448;4.742;2023-04-28T07:42:01;100901.38;;;13.47;100.00
54882;BME280;40775;51.448;4.742;2023-04-28T07:44:30;100913.50;;;13.29;100.00
54882;BME280;40775;51.448;4.742;2023-04-28T07:46:59;100919.56;;;13.21;100.00
54882;BME280;40775;51.448;4.742;2023-04-28T07:49:30;100922.13;;;13.16;100.00
54882;BME280;40775;51.448;4.742;2023-04-28T07:51:57;100915.97;;;13.16;100.00
54882;BME280;40775;51.448;4.742;2023-04-28T07:54:24;100928.34;;;13.20;100.00
54882;BME280;40775;51.448;4.742;2023-04-28T07:56:51;100924.00;;;13.23;100.00
54882;BME280;40775;51.448;4.742;2023-04-28T07:59:19;100931.94;;;13.28;100.00
54882;BME280;40775;51.448;4.742;2023-04-28T08:01:46;100940.69;;;13.25;100.00
54882;BME280;40775;51.448;4.742;2023-04-28T08:04:13;100944.22;;;13.24;100.00
54882;BME280;40775;51.448;4.742;2023-04-28T08:06:41;100935.41;;;13.22;100.00
54882;BME280;40775;51.448;4.742;2023-04-28T08:09:08;100940.72;;;13.27;100.00
54882;BME280;40775;51.448;4.742;2023-04-28T08:11:35;100939.91;;;13.36;100.00
54882;BME280;40775;51.448;4.742;2023-04-28T08:14:02;100932.00;;;13.36;100.00
54882;BME280;40775;51.448;4.742;2023-04-28T08:16:30;100937.31;;;13.39;100.00
54882;BME280;40775;51.448;4.742;2023-04-28T08:18:58;100944.34;;;13.40;100.00
54882;BME280;40775;51.448;4.742;2023-04-28T08:21:26;100943.47;;;13.39;100.00
54882;BME280;40775;51.448;4.742;2023-04-28T08:23:53;100941.88;;;13.55;100.00
54882;BME280;40775;51.448;4.742;2023-04-28T08:26:20;100934.00;;;13.59;100.00
54882;BME280;40775;51.448;4.742;2023-04-28T08:28:49;100939.28;;;13.61;100.00
54882;BME280;40775;51.448;4.742;2023-04-28T08:31:17;100931.38;;;13.61;100.00
54882;BME280;40775;51.448;4.742;2023-04-28T08:33:44;100942.00;;;13.67;100.00
54882;BME280;40775;51.448;4.742;2023-04-28T08:36:14;100936.75;;;13.70;100.00
54882;BME280;40775;51.448;4.742;2023-04-28T08:38:42;100940.28;;;13.71;100.00
54882;BME280;40775;51.448;4.742;2023-04-28T08:41:14;100944.72;;;13.73;100.00
54882;BME280;40775;51.448;4.742;2023-04-28T08:43:42;100943.84;;;13.74;100.00
54882;BME280;40775;51.448;4.742;2023-04-28T08:46:09;100943.84;;;13.76;100.00
54882;BME280;40775;51.448;4.742;2023-04-28T08:48:42;100944.72;;;13.76;100.00
54882;BME280;40775;51.448;4.742;2023-04-28T08:51:24;100942.09;;;13.78;100.00
54882;BME280;40775;51.448;4.742;2023-04-28T08:53:54;100947.50;;;13.93;100.00
54882;BME280;40775;51.448;4.742;2023-04-28T08:56:45;100956.28;;;13.90;100.00
54882;BME280;40775;51.448;4.742;2023-04-28T08:59:13;100948.31;;;13.86;100.00
54882;BME280;40775;51.448;4.742;2023-04-28T09:01:41;100956.28;;;13.93;100.00
54882;BME280;40775;51.448;4.742;2023-04-28T09:04:08;100958.94;;;13.93;100.00
54882;BME280;40775;51.448;4.742;2023-04-28T09:06:40;100958.06;;;13.96;100.00
54882;BME280;40775;51.448;4.742;2023-04-28T09:09:29;100955.44;;;13.96;100.00
54882;BME280;40775;51.448;4.742;2023-04-28T09:12:02;100959.00;;;14.00;100.00
54882;BME280;40775;51.448;4.742;2023-04-28T09:14:35;100958.16;;;14.04;100.00
54882;BME280;40775;51.448;4.742;2023-04-28T09:17:12;100959.06;;;14.06;100.00
54882;BME280;40775;51.448;4.742;2023-04-28T09:19:40;100958.19;;;14.07;100.00
54882;BME280;40775;51.448;4.742;2023-04-28T09:22:10;100958.19;;;14.10;100.00
54882;BME280;40775;51.448;4.742;2023-04-28T09:24:52;100959.09;;;14.10;100.00
54882;BME280;40775;51.448;4.742;2023-04-28T09:27:27;100960.00;;;14.17;100.00
54882;BME280;40775;51.448;4.742;2023-04-28T09:29:54;100964.38;;;14.13;100.00
54882;BME280;40775;51.448;4.742;2023-04-28T09:32:23;100958.25;;;14.17;100.00
54882;BME280;40775;51.448;4.742;2023-04-28T09:34:53;100959.13;;;14.19;100.00
54882;BME280;40775;51.448;4.742;2023-04-28T09:37:25;100960.94;;;14.23;100.00
54882;BME280;40775;51.448;4.742;2023-04-28T09:40:07;100962.75;;;14.28;100.00
54882;BME280;40775;51.448;4.742;2023-04-28T09:42:42;100956.59;;;14.30;100.00
54882;BME280;40775;51.448;4.742;2023-04-28T09:45:12;100970.69;;;14.32;100.00
54882;BME280;40775;51.448;4.742;2023-04-28T09:47:42;100957.50;;;14.34;100.00
54882;BME280;40775;51.448;4.742;2023-04-28T09:50:11;100965.41;;;14.31;100.00
54882;BME280;40775;51.448;4.742;2023-04-28T09:52:47;100965.44;;;14.35;100.00
54882;BME280;40775;51.448;4.742;2023-04-28T09:55:23;100966.31;;;14.34;100.00
54882;BME280;40775;51.448;4.742;2023-04-28T09:57:54;100974.25;;;14.40;100.00
54882;BME280;40775;51.448;4.742;2023-04-28T10:00:22;100975.13;;;14.38;100.00
54882;BME280;40775;51.448;4.742;2023-04-28T10:02:50;100976.00;;;14.35;100.00
54882;BME280;40775;51.448;4.742;2023-04-28T10:05:18;100969.03;;;14.43;100.00
54882;BME280;40775;51.448;4.742;2023-04-28T10:07:47;100955.81;;;14.43;100.00
54882;BME280;40775;51.448;4.742;2023-04-28T10:10:15;100949.66;;;14.43;100.00
54882;BME280;40775;51.448;4.742;2023-04-28T10:12:42;100954.16;;;14.59;100.00
54882;BME280;40775;51.448;4.742;2023-04-28T10:15:12;100946.28;;;14.67;100.00
54882;BME280;40775;51.448;4.742;2023-04-28T10:17:39;100951.59;;;14.73;100.00
54882;BME280;40775;51.448;4.742;2023-04-28T10:20:07;100952.44;;;14.69;100.00
54882;BME280;40775;51.448;4.742;2023-04-28T10:23:04;100956.88;;;14.73;100.00
54882;BME280;40775;51.448;4.742;2023-04-28T10:25:36;100953.38;;;14.77;100.00
54882;BME280;40775;51.448;4.742;2023-04-28T10:28:06;100960.41;;;14.75;100.00
54882;BME280;40775;51.448;4.742;2023-04-28T10:30:33;100953.34;;;14.74;100.00
54882;BME280;40775;51.448;4.742;2023-04-28T10:35:45;100955.13;;;14.76;100.00
54882;BME280;40775;51.448;4.742;2023-04-28T10:38:20;100958.63;;;14.74;100.00
54882;BME280;40775;51.448;4.742;2023-04-28T10:40:49;100970.97;;;14.72;100.00
54882;BME280;40775;51.448;4.742;2023-04-28T10:46:03;100980.59;;;14.61;100.00
54882;BME280;40775;51.448;4.742;2023-04-28T10:56:25;100974.47;;;14.72;100.00
54882;BME280;40775;51.448;4.742;2023-04-28T10:58:59;100982.41;;;14.72;100.00
54882;BME280;40775;51.448;4.742;2023-04-28T11:01:27;100979.84;;;14.83;100.00
54882;BME280;40775;51.448;4.742;2023-04-28T11:04:06;100976.31;;;14.81;100.00
54882;BME280;40775;51.448;4.742;2023-04-28T11:06:39;100975.34;;;14.65;100.00
54882;BME280;40775;51.448;4.742;2023-04-28T11:12:04;100984.03;;;14.47;100.00
54882;BME280;40775;51.448;4.742;2023-04-28T11:14:34;100986.66;;;14.44;100.00
54882;BME280;40775;51.448;4.742;2023-04-28T11:17:09;100987.53;;;14.45;100.00
54882;BME280;40775;51.448;4.742;2023-04-28T11:19:46;100980.50;;;14.47;100.00
54882;BME280;40775;51.448;4.742;2023-04-28T11:22:16;100978.72;;;14.44;100.00
54882;BME280;40775;51.448;4.742;2023-04-28T11:25:03;100995.34;;;14.34;100.00
54882;BME280;40775;51.448;4.742;2023-04-28T11:27:32;100995.38;;;14.40;100.00
54882;BME280;40775;51.448;4.742;2023-04-28T11:30:00;101002.41;;;14.35;100.00
54882;BME280;40775;51.448;4.742;2023-04-28T11:32:33;101009.53;;;14.44;100.00
54882;BME280;40775;51.448;4.742;2023-04-28T11:35:01;101006.81;;;14.38;100.00
54882;BME280;40775;51.448;4.742;2023-04-28T11:37:30;101017.38;;;14.38;100.00
54882;BME280;40775;51.448;4.742;2023-04-28T11:39:57;101009.38;;;14.27;100.00
54882;BME280;40775;51.448;4.742;2023-04-28T11:42:24;101018.88;;;14.02;100.00
54882;BME280;40775;51.448;4.742;2023-04-28T11:44:53;101012.84;;;14.23;100.00
54882;BME280;40775;51.448;4.742;2023-04-28T11:47:33;101016.31;;;14.16;100.00
54882;BME280;40775;51.448;4.742;2023-04-28T11:50:00;101019.88;;;14.19;100.00
54882;BME280;40775;51.448;4.742;2023-04-28T11:52:29;101022.47;;;14.13;100.00
54882;BME280;40775;51.448;4.742;2023-04-28T11:54:58;101023.38;;;14.17;100.00
54882;BME280;40775;51.448;4.742;2023-04-28T11:57:28;101020.72;;;14.17;100.00
54882;BME280;40775;51.448;4.742;2023-04-28T12:00:13;101029.50;;;14.13;100.00
54882;BME280;40775;51.448;4.742;2023-04-28T12:02:44;101034.81;;;14.16;100.00
54882;BME280;40775;51.448;4.742;2023-04-28T12:05:12;101026.03;;;14.18;100.00
54882;BME280;40775;51.448;4.742;2023-04-28T12:07:41;101029.63;;;14.25;100.00
54882;BME280;40775;51.448;4.742;2023-04-28T12:10:14;101030.59;;;14.36;100.00
54882;BME280;40775;51.448;4.742;2023-04-28T12:12:43;101029.78;;;14.45;100.00
54882;BME280;40775;51.448;4.742;2023-04-28T12:15:19;101023.75;;;14.63;100.00
54882;BME280;40775;51.448;4.742;2023-04-28T12:17:48;101032.63;;;14.71;100.00
54882;BME280;40775;51.448;4.742;2023-04-28T12:20:35;101027.34;;;14.72;100.00
54882;BME280;40775;51.448;4.742;2023-04-28T12:23:02;101029.13;;;14.75;100.00
54882;BME280;40775;51.448;4.742;2023-04-28T12:25:29;101022.94;;;14.71;100.00
54882;BME280;40775;51.448;4.742;2023-04-28T12:28:07;101026.47;;;14.73;100.00
54882;BME280;40775;51.448;4.742;2023-04-28T12:30:37;101031.81;;;14.79;100.00
54882;BME280;40775;51.448;4.742;2023-04-28T12:33:23;101022.13;;;14.80;100.00
54882;BME280;40775;51.448;4.742;2023-04-28T12:35:56;101033.59;;;14.87;100.00
54882;BME280;40775;51.448;4.742;2023-04-28T12:38:24;101041.53;;;14.85;100.00
54882;BME280;40775;51.448;4.742;2023-04-28T12:40:52;101040.63;;;14.80;100.00
54882;BME280;40775;51.448;4.742;2023-04-28T12:43:19;101040.56;;;14.77;100.00
54882;BME280;40775;51.448;4.742;2023-04-28T12:45:53;101045.84;;;14.75;100.00
54882;BME280;40775;51.448;4.742;2023-04-28T12:48:22;101039.69;;;14.78;100.00
54882;BME280;40775;51.448;4.742;2023-04-28T12:50:51;101046.81;;;14.83;100.00
54882;BME280;40775;51.448;4.742;2023-04-28T12:53:18;101047.72;;;14.90;100.00
54882;BME280;40775;51.448;4.742;2023-04-28T12:55:45;101053.91;;;14.91;100.00
54882;BME280;40775;51.448;4.742;2023-04-28T12:58:12;101048.59;;;14.89;100.00
54882;BME280;40775;51.448;4.742;2023-04-28T13:00:39;101049.50;;;14.97;100.00
54882;BME280;40775;51.448;4.742;2023-04-28T13:03:07;101050.41;;;14.96;100.00
54882;BME280;40775;51.448;4.742;2023-04-28T13:05:34;101046.91;;;15.03;100.00